createdAt,value
2018-07-19T00:00:22.491Z,37.28
2018-07-19T00:05:26.215Z,37.64
2018-07-19T00:10:29.988Z,37.63
2018-07-19T00:15:33.676Z,37.74
2018-07-19T00:20:38.863Z,37.22
2018-07-19T00:25:42.786Z,37.52
2018-07-19T00:30:46.494Z,37.44
2018-07-19T00:35:50.656Z,38.08
2018-07-19T00:40:54.958Z,37.35
2018-07-19T00:45:58.681Z,37.35
2018-07-19T00:51:02.315Z,37.38
2018-07-19T00:56:06.204Z,37.89
2018-07-19T01:01:09.930Z,37.94
2018-07-19T01:06:13.910Z,37.84
2018-07-19T01:11:17.717Z,37.87
2018-07-19T01:16:22.232Z,37.96
2018-07-19T01:21:26.407Z,37.95
2018-07-19T01:26:30.140Z,38.09
2018-07-19T01:31:33.898Z,37.68
2018-07-19T01:36:37.661Z,37.56
2018-07-19T01:42:47.492Z,38.23
2018-07-19T01:47:51.213Z,37.84
2018-07-19T01:52:55.044Z,37.76
2018-07-19T01:57:58.859Z,38.61
2018-07-19T02:03:02.740Z,38.27
2018-07-19T02:08:06.464Z,38.71
2018-07-19T02:13:10.237Z,38.75
2018-07-19T02:18:14.594Z,38.75
2018-07-19T02:23:18.358Z,38.25
2018-07-19T02:28:22.158Z,38.71
2018-07-19T02:33:25.891Z,38.23
2018-07-19T02:38:29.643Z,38.22
2018-07-19T02:43:33.286Z,38.55
2018-07-19T02:48:37.140Z,38.30
2018-07-19T02:53:40.824Z,38.11
2018-07-19T02:58:44.647Z,38.34
2018-07-19T03:03:48.502Z,37.98
2018-07-19T03:08:52.444Z,38.45
2018-07-19T03:13:56.256Z,38.23
2018-07-19T03:19:00.107Z,38.11
2018-07-19T03:24:03.917Z,38.85
2018-07-19T03:29:07.827Z,38.70
2018-07-19T03:34:11.689Z,38.18
2018-07-19T03:39:15.461Z,40.03
2018-07-19T03:44:19.211Z,40.20
2018-07-19T03:49:22.907Z,41.40
2018-07-19T03:54:26.629Z,41.46
2018-07-19T03:59:30.373Z,41.29
2018-07-19T04:04:34.100Z,42.16
2018-07-19T04:09:37.791Z,41.83
2018-07-19T04:14:41.655Z,43.82
2018-07-19T04:19:45.377Z,44.03
2018-07-19T04:24:49.158Z,44.85
2018-07-19T04:29:52.955Z,45.63
2018-07-19T04:34:56.673Z,45.60
2018-07-19T04:40:00.476Z,46.33
2018-07-19T04:45:06.242Z,46.63
2018-07-19T04:50:09.954Z,46.97
2018-07-19T04:55:13.773Z,47.54
2018-07-19T05:00:17.963Z,47.62
2018-07-19T05:05:22.876Z,48.02
2018-07-19T05:10:26.590Z,48.21
2018-07-19T05:15:30.252Z,48.95
2018-07-19T05:20:33.937Z,48.33
2018-07-19T05:25:37.586Z,49.36
2018-07-19T05:30:41.542Z,48.99
2018-07-19T05:35:45.326Z,48.57
2018-07-19T05:40:49.034Z,48.58
2018-07-19T05:45:52.658Z,48.74
2018-07-19T05:50:56.475Z,49.10
2018-07-19T05:56:00.868Z,49.15
2018-07-19T06:01:04.611Z,49.12
2018-07-19T06:06:08.377Z,48.95
2018-07-19T06:11:12.204Z,48.70
2018-07-19T06:16:15.941Z,48.92
2018-07-19T06:21:20.544Z,48.16
2018-07-19T06:26:24.178Z,48.90
2018-07-19T06:31:28.001Z,47.86
2018-07-19T06:36:31.646Z,48.44
2018-07-19T06:41:35.425Z,48.34
2018-07-19T06:46:39.160Z,48.78
2018-07-19T06:51:42.895Z,48.90
2018-07-19T06:56:46.706Z,48.92
2018-07-19T07:01:50.459Z,48.76
2018-07-19T07:06:54.190Z,49.33
2018-07-19T07:11:57.845Z,49.72
2018-07-19T07:17:01.524Z,49.25
2018-07-19T07:22:05.281Z,49.65
2018-07-19T07:27:09.044Z,49.33
2018-07-19T07:32:12.789Z,49.92
2018-07-19T07:37:16.730Z,49.49
2018-07-19T07:42:20.479Z,49.21
2018-07-19T07:47:24.235Z,49.84
2018-07-19T07:52:28.009Z,48.92
2018-07-19T07:57:31.805Z,49.44
2018-07-19T08:02:35.697Z,49.45
2018-07-19T08:07:39.391Z,50.26
2018-07-19T08:12:43.183Z,49.89
2018-07-19T08:17:46.956Z,49.11
2018-07-19T08:22:50.662Z,49.57
2018-07-19T08:27:54.387Z,49.84
2018-07-19T08:32:58.198Z,48.98
2018-07-19T08:38:01.910Z,49.26
2018-07-19T08:43:05.654Z,50.06
2018-07-19T08:48:09.354Z,49.92
2018-07-19T08:53:13.038Z,49.58
2018-07-19T08:58:16.771Z,49.73
2018-07-19T09:03:21.289Z,50.01
2018-07-19T09:08:25.050Z,49.56
2018-07-19T09:13:28.698Z,49.17
2018-07-19T09:18:32.380Z,49.46
2018-07-19T09:23:36.082Z,49.16
2018-07-19T09:28:39.751Z,49.14
2018-07-19T09:33:43.440Z,49.07
2018-07-19T09:38:47.191Z,47.58
2018-07-19T09:43:51.068Z,47.28
2018-07-19T09:48:54.732Z,48.25
2018-07-19T09:53:58.418Z,47.95
2018-07-19T09:59:02.160Z,47.13
2018-07-19T10:04:05.846Z,47.32
2018-07-19T10:09:09.566Z,46.98
2018-07-19T10:14:13.310Z,46.82
2018-07-19T10:19:17.063Z,46.84
2018-07-19T10:24:20.831Z,46.77
2018-07-19T10:29:25.181Z,46.56
2018-07-19T10:34:28.903Z,46.95
2018-07-19T10:39:32.577Z,46.11
2018-07-19T10:44:36.314Z,45.84
2018-07-19T10:49:40.049Z,45.05
2018-07-19T10:54:43.826Z,45.12
2018-07-19T10:59:47.599Z,45.23
2018-07-19T11:04:51.382Z,45.48
2018-07-19T11:09:55.085Z,45.02
2018-07-19T11:14:58.697Z,44.85
2018-07-19T11:20:05.376Z,43.94
2018-07-19T11:25:09.075Z,43.43
2018-07-19T11:30:12.869Z,43.67
2018-07-19T11:35:16.599Z,43.54
2018-07-19T11:40:20.258Z,43.55
2018-07-19T11:45:24.186Z,43.95
2018-07-19T11:50:27.883Z,44.17
2018-07-19T11:55:31.623Z,43.80
2018-07-19T12:00:35.271Z,43.38
2018-07-19T12:05:38.946Z,43.15
2018-07-19T12:10:42.674Z,43.53
2018-07-19T12:15:46.318Z,42.96
2018-07-19T12:20:49.988Z,42.57
2018-07-19T12:25:53.754Z,43.36
2018-07-19T12:30:57.422Z,43.69
2018-07-19T12:36:01.134Z,42.98
2018-07-19T12:41:04.823Z,44.03
2018-07-19T12:46:08.514Z,44.05
2018-07-19T12:51:12.219Z,44.70
2018-07-19T12:56:15.991Z,44.68
2018-07-19T13:01:19.686Z,44.86
2018-07-19T13:06:23.406Z,44.60
2018-07-19T13:11:27.110Z,45.27
2018-07-19T13:16:30.914Z,45.86
2018-07-19T13:21:34.618Z,46.41
2018-07-19T13:26:38.429Z,45.79
2018-07-19T13:31:42.075Z,45.62
2018-07-19T13:36:45.875Z,46.02
2018-07-19T13:41:49.471Z,46.08
2018-07-19T13:46:53.069Z,46.98
2018-07-19T13:51:56.842Z,47.06
2018-07-19T13:57:00.603Z,47.27
2018-07-19T14:02:04.311Z,47.56
2018-07-19T14:07:07.985Z,46.94
2018-07-19T14:12:11.819Z,47.61
2018-07-19T14:17:15.509Z,46.81
2018-07-19T14:22:19.196Z,47.34
2018-07-19T14:27:22.818Z,47.46
2018-07-19T14:32:26.450Z,47.44
2018-07-19T14:37:30.175Z,47.00
2018-07-19T14:42:35.139Z,47.49
2018-07-19T14:47:39.301Z,47.15
2018-07-19T14:52:43.394Z,46.84
2018-07-19T14:57:47.240Z,47.04
2018-07-19T15:02:50.951Z,47.06
2018-07-19T15:07:55.357Z,46.99
2018-07-19T15:12:59.328Z,46.87
2018-07-19T15:18:03.030Z,46.96
2018-07-19T15:23:06.867Z,46.63
2018-07-19T15:28:10.577Z,46.36
2018-07-19T15:33:16.336Z,46.51
2018-07-19T15:38:20.895Z,46.52
2018-07-19T15:43:25.405Z,46.39
2018-07-19T15:48:29.322Z,46.10
2018-07-19T15:53:33.691Z,45.98
2018-07-19T15:58:37.567Z,45.92
2018-07-19T16:03:41.435Z,46.32
2018-07-19T16:08:45.147Z,45.55
2018-07-19T16:13:49.142Z,45.91
2018-07-19T16:18:52.953Z,46.82
2018-07-19T16:23:56.653Z,48.18
2018-07-19T16:29:00.385Z,48.78
2018-07-19T16:34:04.183Z,48.54
2018-07-19T16:39:09.571Z,48.90
2018-07-19T16:44:13.741Z,49.19
2018-07-19T16:49:17.569Z,49.71
2018-07-19T16:54:21.244Z,49.54
2018-07-19T16:59:24.975Z,49.78
2018-07-19T17:04:28.777Z,48.32
2018-07-19T17:09:32.570Z,48.91
2018-07-19T17:14:36.287Z,47.83
2018-07-19T17:19:39.918Z,48.00
2018-07-19T17:24:43.643Z,47.50
2018-07-19T17:29:47.546Z,46.23
2018-07-19T17:34:51.287Z,47.12
2018-07-19T17:39:55.053Z,46.05
2018-07-19T17:44:58.863Z,46.61
2018-07-19T17:50:04.242Z,46.20
2018-07-19T17:55:08.286Z,45.31
2018-07-19T18:00:11.956Z,45.62
2018-07-19T18:05:15.776Z,45.33
2018-07-19T18:10:19.478Z,45.51
2018-07-19T18:15:23.358Z,45.32
2018-07-19T18:20:27.049Z,45.04
2018-07-19T18:25:30.737Z,45.13
2018-07-19T18:30:34.382Z,45.39
2018-07-19T18:35:37.989Z,45.81
2018-07-19T18:40:41.738Z,44.87
2018-07-19T18:45:45.503Z,45.40
2018-07-19T18:50:49.232Z,44.90
2018-07-19T18:55:52.983Z,45.25
2018-07-19T19:00:56.728Z,45.77
2018-07-19T19:06:00.495Z,45.78
2018-07-19T19:11:04.165Z,45.49
2018-07-19T19:16:08.147Z,45.22
2018-07-19T19:21:11.883Z,45.02
2018-07-19T19:26:15.566Z,45.13
2018-07-19T19:31:19.300Z,45.62
2018-07-19T19:36:22.983Z,44.70
2018-07-19T19:41:26.820Z,44.57
2018-07-19T19:46:30.554Z,44.75
2018-07-19T19:51:34.322Z,44.41
2018-07-19T19:56:37.946Z,44.46
2018-07-19T20:01:41.729Z,43.73
2018-07-19T20:06:45.417Z,44.64
2018-07-19T20:11:49.076Z,44.30
2018-07-19T20:16:52.735Z,43.99
2018-07-19T20:21:56.414Z,44.98
2018-07-19T20:27:00.123Z,43.81
2018-07-19T20:32:03.766Z,44.72
2018-07-19T20:37:07.446Z,44.00
2018-07-19T20:42:11.079Z,43.97
2018-07-19T20:47:15.117Z,44.77
2018-07-19T20:52:18.824Z,45.42
2018-07-19T20:57:22.528Z,44.50
2018-07-19T21:02:26.316Z,45.15
2018-07-19T21:07:30.014Z,45.74
2018-07-19T21:12:33.711Z,45.21
2018-07-19T21:17:37.402Z,45.35
2018-07-19T21:22:41.171Z,45.93
2018-07-19T21:27:44.894Z,45.68
2018-07-19T21:32:48.582Z,45.29
2018-07-19T21:37:52.295Z,45.80
2018-07-19T21:42:55.923Z,45.37
2018-07-19T21:47:59.582Z,45.98
2018-07-19T21:53:03.309Z,45.74
2018-07-19T21:58:07.066Z,46.40
2018-07-19T22:03:10.806Z,46.16
2018-07-19T22:08:14.511Z,45.88
2018-07-19T22:13:18.154Z,45.24
2018-07-19T22:18:22.689Z,45.51
2018-07-19T22:23:26.442Z,45.79
2018-07-19T22:28:30.115Z,45.33
2018-07-19T22:33:33.850Z,45.27
2018-07-19T22:38:37.700Z,45.23
2018-07-19T22:43:41.414Z,45.73
2018-07-19T22:48:45.090Z,46.22
2018-07-19T22:53:49.602Z,46.13
2018-07-19T22:58:53.302Z,46.13
2018-07-19T23:03:57.025Z,45.79
2018-07-19T23:09:00.670Z,45.98
2018-07-19T23:14:04.306Z,46.01
2018-07-19T23:19:07.958Z,46.32
2018-07-19T23:24:11.677Z,45.94
2018-07-19T23:29:15.594Z,46.08
2018-07-19T23:34:19.379Z,46.01
2018-07-19T23:39:27.601Z,45.94
2018-07-19T23:44:34.905Z,46.33
2018-07-19T23:49:38.551Z,45.69
2018-07-19T23:54:42.290Z,45.61
2018-07-19T23:59:45.982Z,45.78
